Terminal Aerodrome Forecast
Issued by NWS Corpus Christi, TX

Home | Current Version | Previous Version | Text Only | Print | Product List | Glossary On
Versions: 1 2 3 4 5 6 7 8 9 10 11 12 13 14 15 16 17
000
FTUS44 KCRP 020500
TAFCRP
TAF
KCRP 020531Z 0206/0306 15008KT 6SM BR SCT015
      TEMPO 0206/0210 BKN015
     FM021600 17015KT P6SM SCT030
     FM022000 16018G23KT P6SM SCT035
     FM030100 15012KT P6SM FEW015=

USA.gov is the U.S. government's official web portal to all federal, state and local government web resources and services.